sensor_id;sensor_type;location;lat;lon;timestamp;P1;durP1;ratioP1;P2;durP2;ratioP2
29378;SDS011;16362;47.202;15.258;2024-02-21T00:01:21;2.08;;;0.90;;
29378;SDS011;16362;47.202;15.258;2024-02-21T00:03:49;0.95;;;0.88;;
29378;SDS011;16362;47.202;15.258;2024-02-21T00:06:16;0.75;;;0.75;;
29378;SDS011;16362;47.202;15.258;2024-02-21T00:08:43;0.80;;;0.80;;
29378;SDS011;16362;47.202;15.258;2024-02-21T00:11:10;1.85;;;1.00;;
29378;SDS011;16362;47.202;15.258;2024-02-21T00:13:37;6.13;;;0.82;;
29378;SDS011;16362;47.202;15.258;2024-02-21T00:16:04;1.42;;;1.10;;
29378;SDS011;16362;47.202;15.258;2024-02-21T00:18:30;1.10;;;0.90;;
29378;SDS011;16362;47.202;15.258;2024-02-21T00:20:57;1.45;;;0.95;;
29378;SDS011;16362;47.202;15.258;2024-02-21T00:23:24;1.17;;;1.17;;
29378;SDS011;16362;47.202;15.258;2024-02-21T00:25:52;1.00;;;1.00;;
29378;SDS011;16362;47.202;15.258;2024-02-21T00:28:19;1.10;;;1.00;;
29378;SDS011;16362;47.202;15.258;2024-02-21T00:30:46;1.75;;;0.98;;
29378;SDS011;16362;47.202;15.258;2024-02-21T00:33:13;1.00;;;1.00;;
29378;SDS011;16362;47.202;15.258;2024-02-21T00:35:41;1.13;;;1.02;;
29378;SDS011;16362;47.202;15.258;2024-02-21T00:38:08;0.63;;;0.63;;
29378;SDS011;16362;47.202;15.258;2024-02-21T00:40:38;1.10;;;1.10;;
29378;SDS011;16362;47.202;15.258;2024-02-21T00:43:07;2.55;;;0.90;;
29378;SDS011;16362;47.202;15.258;2024-02-21T00:45:34;1.48;;;1.10;;
29378;SDS011;16362;47.202;15.258;2024-02-21T00:48:01;1.25;;;1.10;;
29378;SDS011;16362;47.202;15.258;2024-02-21T00:50:28;2.75;;;1.10;;
29378;SDS011;16362;47.202;15.258;2024-02-21T00:53:01;1.98;;;1.15;;
29378;SDS011;16362;47.202;15.258;2024-02-21T00:55:28;2.45;;;0.80;;
29378;SDS011;16362;47.202;15.258;2024-02-21T00:57:55;1.40;;;1.08;;
29378;SDS011;16362;47.202;15.258;2024-02-21T01:00:22;2.03;;;1.08;;
29378;SDS011;16362;47.202;15.258;2024-02-21T01:02:48;1.88;;;1.00;;
29378;SDS011;16362;47.202;15.258;2024-02-21T01:05:19;0.85;;;0.80;;
29378;SDS011;16362;47.202;15.258;2024-02-21T01:07:47;1.98;;;1.20;;
29378;SDS011;16362;47.202;15.258;2024-02-21T01:10:14;4.82;;;1.20;;
29378;SDS011;16362;47.202;15.258;2024-02-21T01:12:43;5.55;;;1.55;;
29378;SDS011;16362;47.202;15.258;2024-02-21T01:15:10;1.98;;;1.85;;
29378;SDS011;16362;47.202;15.258;2024-02-21T01:17:38;3.22;;;1.50;;
29378;SDS011;16362;47.202;15.258;2024-02-21T01:20:08;1.60;;;1.50;;
29378;SDS011;16362;47.202;15.258;2024-02-21T01:22:36;4.75;;;1.30;;
29378;SDS011;16362;47.202;15.258;2024-02-21T01:25:04;2.03;;;1.83;;
29378;SDS011;16362;47.202;15.258;2024-02-21T01:27:31;2.42;;;1.15;;
29378;SDS011;16362;47.202;15.258;2024-02-21T01:29:57;1.95;;;1.25;;
29378;SDS011;16362;47.202;15.258;2024-02-21T01:32:24;1.35;;;1.20;;
29378;SDS011;16362;47.202;15.258;2024-02-21T01:34:51;1.75;;;1.33;;
29378;SDS011;16362;47.202;15.258;2024-02-21T01:37:18;1.70;;;1.20;;
29378;SDS011;16362;47.202;15.258;2024-02-21T01:39:45;7.57;;;1.30;;
29378;SDS011;16362;47.202;15.258;2024-02-21T01:42:12;1.35;;;1.08;;
29378;SDS011;16362;47.202;15.258;2024-02-21T01:44:38;1.73;;;1.23;;
29378;SDS011;16362;47.202;15.258;2024-02-21T01:47:05;2.75;;;1.38;;
29378;SDS011;16362;47.202;15.258;2024-02-21T01:49:32;1.25;;;1.13;;
29378;SDS011;16362;47.202;15.258;2024-02-21T01:51:59;2.75;;;0.95;;
29378;SDS011;16362;47.202;15.258;2024-02-21T01:54:27;2.92;;;1.20;;
29378;SDS011;16362;47.202;15.258;2024-02-21T01:56:55;3.10;;;1.35;;
29378;SDS011;16362;47.202;15.258;2024-02-21T01:59:22;1.88;;;1.10;;
29378;SDS011;16362;47.202;15.258;2024-02-21T02:01:50;1.50;;;1.40;;
29378;SDS011;16362;47.202;15.258;2024-02-21T02:04:20;8.05;;;1.70;;
29378;SDS011;16362;47.202;15.258;2024-02-21T02:06:47;2.03;;;1.50;;
29378;SDS011;16362;47.202;15.258;2024-02-21T02:09:15;4.00;;;1.80;;
29378;SDS011;16362;47.202;15.258;2024-02-21T02:11:43;2.03;;;1.80;;
29378;SDS011;16362;47.202;15.258;2024-02-21T02:14:10;2.33;;;1.80;;
29378;SDS011;16362;47.202;15.258;2024-02-21T02:16:37;1.55;;;1.45;;
29378;SDS011;16362;47.202;15.258;2024-02-21T02:19:04;1.95;;;1.85;;
29378;SDS011;16362;47.202;15.258;2024-02-21T02:21:35;3.20;;;1.70;;
29378;SDS011;16362;47.202;15.258;2024-02-21T02:26:36;1.60;;;1.50;;
29378;SDS011;16362;47.202;15.258;2024-02-21T02:29:03;1.52;;;1.20;;
29378;SDS011;16362;47.202;15.258;2024-02-21T02:31:30;2.15;;;1.58;;
29378;SDS011;16362;47.202;15.258;2024-02-21T02:33:59;2.78;;;1.25;;
29378;SDS011;16362;47.202;15.258;2024-02-21T02:36:26;2.50;;;1.38;;
29378;SDS011;16362;47.202;15.258;2024-02-21T02:38:53;3.33;;;1.48;;
29378;SDS011;16362;47.202;15.258;2024-02-21T02:41:20;2.75;;;1.35;;
29378;SDS011;16362;47.202;15.258;2024-02-21T02:43:47;2.53;;;1.23;;
29378;SDS011;16362;47.202;15.258;2024-02-21T02:46:14;1.63;;;1.35;;
29378;SDS011;16362;47.202;15.258;2024-02-21T02:48:41;1.25;;;1.15;;
29378;SDS011;16362;47.202;15.258;2024-02-21T02:51:08;1.92;;;1.73;;
29378;SDS011;16362;47.202;15.258;2024-02-21T02:53:35;1.48;;;1.17;;
29378;SDS011;16362;47.202;15.258;2024-02-21T02:56:01;1.90;;;1.38;;
29378;SDS011;16362;47.202;15.258;2024-02-21T02:58:29;2.17;;;1.67;;
29378;SDS011;16362;47.202;15.258;2024-02-21T03:00:57;1.77;;;1.35;;
29378;SDS011;16362;47.202;15.258;2024-02-21T03:03:24;1.55;;;1.10;;
29378;SDS011;16362;47.202;15.258;2024-02-21T03:05:52;1.67;;;1.40;;
29378;SDS011;16362;47.202;15.258;2024-02-21T03:08:20;1.80;;;1.45;;
29378;SDS011;16362;47.202;15.258;2024-02-21T03:10:47;8.35;;;1.80;;
29378;SDS011;16362;47.202;15.258;2024-02-21T03:13:13;3.47;;;1.27;;
29378;SDS011;16362;47.202;15.258;2024-02-21T03:15:40;2.45;;;1.50;;
29378;SDS011;16362;47.202;15.258;2024-02-21T03:18:07;1.80;;;1.10;;
29378;SDS011;16362;47.202;15.258;2024-02-21T03:20:34;1.25;;;1.20;;
29378;SDS011;16362;47.202;15.258;2024-02-21T03:23:01;4.22;;;1.35;;
29378;SDS011;16362;47.202;15.258;2024-02-21T03:25:28;1.33;;;1.25;;
29378;SDS011;16362;47.202;15.258;2024-02-21T03:27:54;1.55;;;1.00;;
29378;SDS011;16362;47.202;15.258;2024-02-21T03:30:21;2.92;;;1.02;;
29378;SDS011;16362;47.202;15.258;2024-02-21T03:32:48;1.10;;;1.02;;
29378;SDS011;16362;47.202;15.258;2024-02-21T03:35:14;4.35;;;1.20;;
29378;SDS011;16362;47.202;15.258;2024-02-21T03:37:41;2.55;;;1.63;;
29378;SDS011;16362;47.202;15.258;2024-02-21T03:40:08;1.73;;;1.27;;
29378;SDS011;16362;47.202;15.258;2024-02-21T03:42:36;5.53;;;1.42;;
29378;SDS011;16362;47.202;15.258;2024-02-21T03:45:06;1.70;;;1.10;;
29378;SDS011;16362;47.202;15.258;2024-02-21T03:47:37;2.22;;;1.25;;
29378;SDS011;16362;47.202;15.258;2024-02-21T03:50:04;2.38;;;1.20;;
29378;SDS011;16362;47.202;15.258;2024-02-21T03:52:32;1.63;;;1.33;;
29378;SDS011;16362;47.202;15.258;2024-02-21T03:55:01;8.23;;;1.08;;
29378;SDS011;16362;47.202;15.258;2024-02-21T03:57:28;1.65;;;1.35;;
29378;SDS011;16362;47.202;15.258;2024-02-21T03:59:56;1.05;;;1.05;;
29378;SDS011;16362;47.202;15.258;2024-02-21T04:02:23;3.00;;;1.10;;
29378;SDS011;16362;47.202;15.258;2024-02-21T04:04:50;1.77;;;1.00;;
29378;SDS011;16362;47.202;15.258;2024-02-21T04:07:17;0.90;;;0.90;;
29378;SDS011;16362;47.202;15.258;2024-02-21T04:09:44;5.72;;;1.48;;
29378;SDS011;16362;47.202;15.258;2024-02-21T04:12:13;1.23;;;1.13;;
29378;SDS011;16362;47.202;15.258;2024-02-21T04:14:39;1.73;;;1.38;;
29378;SDS011;16362;47.202;15.258;2024-02-21T04:17:09;2.10;;;0.90;;
29378;SDS011;16362;47.202;15.258;2024-02-21T04:19:35;3.08;;;1.05;;
29378;SDS011;16362;47.202;15.258;2024-02-21T04:22:02;3.33;;;1.30;;
29378;SDS011;16362;47.202;15.258;2024-02-21T04:24:30;2.15;;;1.67;;
29378;SDS011;16362;47.202;15.258;2024-02-21T04:26:58;2.42;;;1.40;;
29378;SDS011;16362;47.202;15.258;2024-02-21T04:29:25;2.97;;;1.20;;
29378;SDS011;16362;47.202;15.258;2024-02-21T04:31:54;3.50;;;1.08;;
29378;SDS011;16362;47.202;15.258;2024-02-21T04:34:23;1.20;;;0.90;;
29378;SDS011;16362;47.202;15.258;2024-02-21T04:36:50;7.82;;;1.40;;
29378;SDS011;16362;47.202;15.258;2024-02-21T04:39:16;3.50;;;1.17;;
29378;SDS011;16362;47.202;15.258;2024-02-21T04:41:44;2.67;;;1.38;;
29378;SDS011;16362;47.202;15.258;2024-02-21T04:44:11;3.10;;;1.33;;
29378;SDS011;16362;47.202;15.258;2024-02-21T04:46:38;2.05;;;1.17;;
29378;SDS011;16362;47.202;15.258;2024-02-21T04:49:10;2.75;;;1.23;;
29378;SDS011;16362;47.202;15.258;2024-02-21T04:51:39;6.65;;;1.20;;
29378;SDS011;16362;47.202;15.258;2024-02-21T04:54:10;3.22;;;1.10;;
29378;SDS011;16362;47.202;15.258;2024-02-21T04:56:36;2.55;;;1.38;;
29378;SDS011;16362;47.202;15.258;2024-02-21T04:59:03;2.63;;;1.73;;
29378;SDS011;16362;47.202;15.258;2024-02-21T05:01:30;2.70;;;1.40;;
29378;SDS011;16362;47.202;15.258;2024-02-21T05:03:57;1.92;;;1.30;;
29378;SDS011;16362;47.202;15.258;2024-02-21T05:06:25;1.77;;;1.50;;
29378;SDS011;16362;47.202;15.258;2024-02-21T05:08:52;3.38;;;1.30;;
29378;SDS011;16362;47.202;15.258;2024-02-21T05:11:19;3.13;;;1.30;;
29378;SDS011;16362;47.202;15.258;2024-02-21T05:13:45;1.35;;;1.25;;
29378;SDS011;16362;47.202;15.258;2024-02-21T05:16:12;2.08;;;1.10;;
29378;SDS011;16362;47.202;15.258;2024-02-21T05:18:40;1.63;;;1.13;;
29378;SDS011;16362;47.202;15.258;2024-02-21T05:21:09;1.80;;;1.10;;
29378;SDS011;16362;47.202;15.258;2024-02-21T05:23:37;4.10;;;1.08;;
29378;SDS011;16362;47.202;15.258;2024-02-21T05:26:06;2.08;;;1.13;;
29378;SDS011;16362;47.202;15.258;2024-02-21T05:28:33;1.13;;;1.05;;
29378;SDS011;16362;47.202;15.258;2024-02-21T05:31:01;2.40;;;1.20;;
29378;SDS011;16362;47.202;15.258;2024-02-21T05:33:30;5.28;;;2.03;;
29378;SDS011;16362;47.202;15.258;2024-02-21T05:35:58;1.80;;;1.08;;
29378;SDS011;16362;47.202;15.258;2024-02-21T05:38:25;1.98;;;1.00;;
29378;SDS011;16362;47.202;15.258;2024-02-21T05:40:56;4.97;;;1.13;;
29378;SDS011;16362;47.202;15.258;2024-02-21T05:43:23;1.27;;;0.95;;
29378;SDS011;16362;47.202;15.258;2024-02-21T05:45:50;2.97;;;0.90;;
29378;SDS011;16362;47.202;15.258;2024-02-21T05:48:17;3.03;;;1.13;;
29378;SDS011;16362;47.202;15.258;2024-02-21T05:50:45;3.65;;;1.23;;
29378;SDS011;16362;47.202;15.258;2024-02-21T05:53:13;2.58;;;1.20;;
29378;SDS011;16362;47.202;15.258;2024-02-21T05:55:40;2.97;;;1.20;;
29378;SDS011;16362;47.202;15.258;2024-02-21T05:58:10;1.45;;;1.13;;
29378;SDS011;16362;47.202;15.258;2024-02-21T06:00:40;2.60;;;1.40;;
29378;SDS011;16362;47.202;15.258;2024-02-21T06:03:10;2.78;;;1.50;;
29378;SDS011;16362;47.202;15.258;2024-02-21T06:05:40;2.85;;;1.10;;
29378;SDS011;16362;47.202;15.258;2024-02-21T06:08:08;1.90;;;1.40;;
29378;SDS011;16362;47.202;15.258;2024-02-21T06:10:36;3.50;;;1.63;;
29378;SDS011;16362;47.202;15.258;2024-02-21T06:13:03;3.15;;;1.90;;
29378;SDS011;16362;47.202;15.258;2024-02-21T06:15:30;3.08;;;1.70;;
29378;SDS011;16362;47.202;15.258;2024-02-21T06:17:57;3.38;;;1.70;;
29378;SDS011;16362;47.202;15.258;2024-02-21T06:20:27;2.08;;;1.60;;
29378;SDS011;16362;47.202;15.258;2024-02-21T06:22:54;4.03;;;2.10;;
29378;SDS011;16362;47.202;15.258;2024-02-21T06:25:20;3.88;;;2.30;;
29378;SDS011;16362;47.202;15.258;2024-02-21T06:27:47;6.22;;;2.25;;
29378;SDS011;16362;47.202;15.258;2024-02-21T06:30:14;6.07;;;2.22;;
29378;SDS011;16362;47.202;15.258;2024-02-21T06:32:41;2.33;;;1.73;;
29378;SDS011;16362;47.202;15.258;2024-02-21T06:35:07;3.63;;;1.88;;
29378;SDS011;16362;47.202;15.258;2024-02-21T06:37:34;4.43;;;2.15;;
29378;SDS011;16362;47.202;15.258;2024-02-21T06:40:01;1.90;;;1.80;;
29378;SDS011;16362;47.202;15.258;2024-02-21T06:42:30;1.90;;;1.80;;
29378;SDS011;16362;47.202;15.258;2024-02-21T06:44:57;2.80;;;2.00;;
29378;SDS011;16362;47.202;15.258;2024-02-21T06:47:23;2.17;;;1.90;;
29378;SDS011;16362;47.202;15.258;2024-02-21T06:49:51;6.63;;;2.90;;
29378;SDS011;16362;47.202;15.258;2024-02-21T06:52:18;3.13;;;2.25;;
29378;SDS011;16362;47.202;15.258;2024-02-21T06:54:47;3.50;;;2.42;;
29378;SDS011;16362;47.202;15.258;2024-02-21T06:57:15;5.53;;;2.63;;
29378;SDS011;16362;47.202;15.258;2024-02-21T06:59:42;6.78;;;2.65;;
29378;SDS011;16362;47.202;15.258;2024-02-21T07:02:09;3.10;;;2.47;;
29378;SDS011;16362;47.202;15.258;2024-02-21T07:04:36;3.90;;;1.95;;
29378;SDS011;16362;47.202;15.258;2024-02-21T07:07:08;2.40;;;2.20;;
29378;SDS011;16362;47.202;15.258;2024-02-21T07:09:39;2.70;;;2.15;;
29378;SDS011;16362;47.202;15.258;2024-02-21T07:12:06;2.15;;;1.98;;
29378;SDS011;16362;47.202;15.258;2024-02-21T07:14:33;3.85;;;2.03;;
29378;SDS011;16362;47.202;15.258;2024-02-21T07:17:11;2.70;;;2.17;;
29378;SDS011;16362;47.202;15.258;2024-02-21T07:19:38;4.15;;;2.33;;
29378;SDS011;16362;47.202;15.258;2024-02-21T07:22:05;2.10;;;1.73;;
29378;SDS011;16362;47.202;15.258;2024-02-21T07:24:32;2.65;;;2.20;;
29378;SDS011;16362;47.202;15.258;2024-02-21T07:27:00;4.95;;;2.30;;
29378;SDS011;16362;47.202;15.258;2024-02-21T07:29:31;3.13;;;2.15;;
29378;SDS011;16362;47.202;15.258;2024-02-21T07:32:01;2.55;;;2.35;;
29378;SDS011;16362;47.202;15.258;2024-02-21T07:34:30;4.25;;;2.45;;
29378;SDS011;16362;47.202;15.258;2024-02-21T07:37:00;8.00;;;2.40;;
29378;SDS011;16362;47.202;15.258;2024-02-21T07:39:30;1.85;;;1.65;;
29378;SDS011;16362;47.202;15.258;2024-02-21T07:41:57;3.13;;;2.83;;
29378;SDS011;16362;47.202;15.258;2024-02-21T07:44:24;3.42;;;2.22;;
29378;SDS011;16362;47.202;15.258;2024-02-21T07:46:51;3.50;;;1.65;;
29378;SDS011;16362;47.202;15.258;2024-02-21T07:49:19;4.25;;;1.73;;
29378;SDS011;16362;47.202;15.258;2024-02-21T07:51:47;2.83;;;1.65;;
29378;SDS011;16362;47.202;15.258;2024-02-21T07:54:14;1.70;;;1.60;;
29378;SDS011;16362;47.202;15.258;2024-02-21T07:56:44;3.60;;;1.58;;
29378;SDS011;16362;47.202;15.258;2024-02-21T07:59:11;2.58;;;1.65;;
29378;SDS011;16362;47.202;15.258;2024-02-21T08:01:40;3.47;;;1.60;;
29378;SDS011;16362;47.202;15.258;2024-02-21T08:04:07;5.45;;;1.85;;
29378;SDS011;16362;47.202;15.258;2024-02-21T08:06:34;4.22;;;2.03;;
29378;SDS011;16362;47.202;15.258;2024-02-21T08:09:01;4.82;;;1.48;;
29378;SDS011;16362;47.202;15.258;2024-02-21T08:11:29;2.45;;;1.75;;
29378;SDS011;16362;47.202;15.258;2024-02-21T08:13:56;2.53;;;1.75;;
29378;SDS011;16362;47.202;15.258;2024-02-21T08:16:23;1.95;;;1.77;;
29378;SDS011;16362;47.202;15.258;2024-02-21T08:18:50;1.50;;;1.40;;
29378;SDS011;16362;47.202;15.258;2024-02-21T08:21:17;3.33;;;1.75;;
29378;SDS011;16362;47.202;15.258;2024-02-21T08:23:44;2.13;;;1.52;;
29378;SDS011;16362;47.202;15.258;2024-02-21T08:26:11;2.92;;;1.77;;
29378;SDS011;16362;47.202;15.258;2024-02-21T08:28:38;2.10;;;1.30;;
29378;SDS011;16362;47.202;15.258;2024-02-21T08:31:05;2.67;;;1.23;;
29378;SDS011;16362;47.202;15.258;2024-02-21T08:33:31;1.75;;;1.33;;
29378;SDS011;16362;47.202;15.258;2024-02-21T08:35:58;1.85;;;1.25;;
29378;SDS011;16362;47.202;15.258;2024-02-21T08:38:25;3.75;;;1.70;;
29378;SDS011;16362;47.202;15.258;2024-02-21T08:40:52;2.00;;;1.10;;
29378;SDS011;16362;47.202;15.258;2024-02-21T08:43:20;2.40;;;1.13;;
29378;SDS011;16362;47.202;15.258;2024-02-21T08:45:48;2.65;;;1.00;;
29378;SDS011;16362;47.202;15.258;2024-02-21T08:48:15;1.98;;;1.10;;
29378;SDS011;16362;47.202;15.258;2024-02-21T08:50:42;1.70;;;0.68;;
29378;SDS011;16362;47.202;15.258;2024-02-21T08:53:10;1.48;;;1.08;;
29378;SDS011;16362;47.202;15.258;2024-02-21T08:55:38;2.70;;;1.05;;
29378;SDS011;16362;47.202;15.258;2024-02-21T08:58:07;2.35;;;1.08;;
29378;SDS011;16362;47.202;15.258;2024-02-21T09:00:34;1.27;;;1.10;;
29378;SDS011;16362;47.202;15.258;2024-02-21T09:03:05;0.95;;;0.93;;
29378;SDS011;16362;47.202;15.258;2024-02-21T09:05:34;2.30;;;0.90;;
29378;SDS011;16362;47.202;15.258;2024-02-21T09:08:02;3.10;;;0.93;;
29378;SDS011;16362;47.202;15.258;2024-02-21T09:10:34;1.45;;;1.00;;
29378;SDS011;16362;47.202;15.258;2024-02-21T09:13:07;5.63;;;0.98;;
29378;SDS011;16362;47.202;15.258;2024-02-21T09:15:40;1.48;;;1.10;;
29378;SDS011;16362;47.202;15.258;2024-02-21T09:18:14;2.15;;;1.30;;
29378;SDS011;16362;47.202;15.258;2024-02-21T09:23:10;3.20;;;1.00;;
29378;SDS011;16362;47.202;15.258;2024-02-21T09:28:38;2.58;;;1.52;;
29378;SDS011;16362;47.202;15.258;2024-02-21T09:31:06;2.50;;;1.40;;
29378;SDS011;16362;47.202;15.258;2024-02-21T09:33:34;1.80;;;1.30;;
29378;SDS011;16362;47.202;15.258;2024-02-21T09:36:10;2.72;;;1.38;;
29378;SDS011;16362;47.202;15.258;2024-02-21T09:38:44;1.38;;;1.13;;
29378;SDS011;16362;47.202;15.258;2024-02-21T09:41:17;3.53;;;1.35;;
29378;SDS011;16362;47.202;15.258;2024-02-21T09:43:56;2.00;;;1.20;;
29378;SDS011;16362;47.202;15.258;2024-02-21T09:47:12;1.50;;;1.40;;
29378;SDS011;16362;47.202;15.258;2024-02-21T09:51:53;1.30;;;1.20;;
29378;SDS011;16362;47.202;15.258;2024-02-21T09:54:21;3.97;;;1.33;;
29378;SDS011;16362;47.202;15.258;2024-02-21T09:56:48;1.05;;;1.05;;
29378;SDS011;16362;47.202;15.258;2024-02-21T09:59:16;2.30;;;1.23;;
29378;SDS011;16362;47.202;15.258;2024-02-21T10:01:43;1.15;;;1.15;;
29378;SDS011;16362;47.202;15.258;2024-02-21T10:04:17;6.30;;;1.48;;
29378;SDS011;16362;47.202;15.258;2024-02-21T10:06:45;1.20;;;1.10;;
29378;SDS011;16362;47.202;15.258;2024-02-21T10:09:22;1.80;;;1.33;;
29378;SDS011;16362;47.202;15.258;2024-02-21T10:11:50;1.27;;;1.17;;
29378;SDS011;16362;47.202;15.258;2024-02-21T10:14:18;0.85;;;0.85;;
29378;SDS011;16362;47.202;15.258;2024-02-21T10:16:46;1.30;;;0.85;;
29378;SDS011;16362;47.202;15.258;2024-02-21T10:19:18;0.95;;;0.80;;
29378;SDS011;16362;47.202;15.258;2024-02-21T10:22:03;0.90;;;0.75;;
29378;SDS011;16362;47.202;15.258;2024-02-21T10:24:35;0.98;;;0.70;;
29378;SDS011;16362;47.202;15.258;2024-02-21T10:27:05;3.08;;;1.10;;
29378;SDS011;16362;47.202;15.258;2024-02-21T10:29:40;4.67;;;1.30;;
29378;SDS011;16362;47.202;15.258;2024-02-21T10:32:10;1.15;;;1.02;;
29378;SDS011;16362;47.202;15.258;2024-02-21T10:34:44;1.00;;;0.90;;
29378;SDS011;16362;47.202;15.258;2024-02-21T10:37:12;1.38;;;0.77;;
29378;SDS011;16362;47.202;15.258;2024-02-21T10:39:51;3.53;;;1.13;;
29378;SDS011;16362;47.202;15.258;2024-02-21T10:42:21;0.75;;;0.63;;
29378;SDS011;16362;47.202;15.258;2024-02-21T10:44:50;5.25;;;0.80;;
29378;SDS011;16362;47.202;15.258;2024-02-21T10:47:20;0.77;;;0.77;;
29378;SDS011;16362;47.202;15.258;2024-02-21T10:49:58;0.90;;;0.88;;
29378;SDS011;16362;47.202;15.258;2024-02-21T10:55:33;1.45;;;1.08;;
29378;SDS011;16362;47.202;15.258;2024-02-21T10:58:20;1.95;;;0.95;;
29378;SDS011;16362;47.202;15.258;2024-02-21T11:00:48;2.95;;;0.85;;
29378;SDS011;16362;47.202;15.258;2024-02-21T11:03:22;1.45;;;1.08;;
29378;SDS011;16362;47.202;15.258;2024-02-21T11:05:50;1.08;;;0.93;;
29378;SDS011;16362;47.202;15.258;2024-02-21T11:08:20;1.45;;;0.90;;
29378;SDS011;16362;47.202;15.258;2024-02-21T11:10:47;0.90;;;0.90;;
29378;SDS011;16362;47.202;15.258;2024-02-21T11:13:15;1.95;;;0.80;;
29378;SDS011;16362;47.202;15.258;2024-02-21T11:15:42;1.05;;;0.82;;
29378;SDS011;16362;47.202;15.258;2024-02-21T11:18:09;1.25;;;0.60;;
29378;SDS011;16362;47.202;15.258;2024-02-21T11:20:37;0.90;;;0.85;;
29378;SDS011;16362;47.202;15.258;2024-02-21T11:23:06;1.40;;;0.98;;
29378;SDS011;16362;47.202;15.258;2024-02-21T11:25:36;1.48;;;1.02;;
29378;SDS011;16362;47.202;15.258;2024-02-21T11:28:03;1.00;;;0.90;;
29378;SDS011;16362;47.202;15.258;2024-02-21T11:30:32;1.85;;;1.10;;
29378;SDS011;16362;47.202;15.258;2024-02-21T11:33:02;4.22;;;0.98;;
29378;SDS011;16362;47.202;15.258;2024-02-21T11:35:34;1.60;;;1.00;;
29378;SDS011;16362;47.202;15.258;2024-02-21T11:38:11;1.48;;;0.93;;
29378;SDS011;16362;47.202;15.258;2024-02-21T11:40:44;2.72;;;0.80;;
29378;SDS011;16362;47.202;15.258;2024-02-21T11:43:12;3.35;;;1.05;;
29378;SDS011;16362;47.202;15.258;2024-02-21T11:45:39;1.10;;;1.00;;
29378;SDS011;16362;47.202;15.258;2024-02-21T11:48:06;2.83;;;1.20;;
29378;SDS011;16362;47.202;15.258;2024-02-21T11:50:34;1.25;;;1.15;;
29378;SDS011;16362;47.202;15.258;2024-02-21T11:53:02;3.60;;;1.17;;
29378;SDS011;16362;47.202;15.258;2024-02-21T11:55:29;5.22;;;1.55;;
29378;SDS011;16362;47.202;15.258;2024-02-21T11:57:56;2.50;;;1.60;;
29378;SDS011;16362;47.202;15.258;2024-02-21T12:00:23;4.43;;;1.45;;
29378;SDS011;16362;47.202;15.258;2024-02-21T12:02:53;1.60;;;1.30;;
29378;SDS011;16362;47.202;15.258;2024-02-21T12:05:22;2.80;;;1.40;;
29378;SDS011;16362;47.202;15.258;2024-02-21T12:07:49;4.05;;;1.38;;
29378;SDS011;16362;47.202;15.258;2024-02-21T12:10:16;2.35;;;1.13;;
29378;SDS011;16362;47.202;15.258;2024-02-21T12:12:44;1.95;;;0.90;;
29378;SDS011;16362;47.202;15.258;2024-02-21T12:15:18;1.13;;;1.10;;
29378;SDS011;16362;47.202;15.258;2024-02-21T12:20:14;8.55;;;1.35;;
29378;SDS011;16362;47.202;15.258;2024-02-21T12:22:48;4.38;;;1.20;;
29378;SDS011;16362;47.202;15.258;2024-02-21T12:25:22;4.05;;;1.45;;
29378;SDS011;16362;47.202;15.258;2024-02-21T12:27:55;2.00;;;1.33;;
29378;SDS011;16362;47.202;15.258;2024-02-21T12:30:25;1.65;;;1.35;;
29378;SDS011;16362;47.202;15.258;2024-02-21T12:32:54;1.92;;;1.60;;
29378;SDS011;16362;47.202;15.258;2024-02-21T12:35:21;2.25;;;1.30;;
29378;SDS011;16362;47.202;15.258;2024-02-21T12:37:48;3.50;;;1.25;;
29378;SDS011;16362;47.202;15.258;2024-02-21T12:40:20;4.57;;;1.75;;
29378;SDS011;16362;47.202;15.258;2024-02-21T12:42:49;1.20;;;1.13;;
29378;SDS011;16362;47.202;15.258;2024-02-21T12:45:16;4.47;;;1.38;;
29378;SDS011;16362;47.202;15.258;2024-02-21T12:47:49;2.47;;;1.33;;
29378;SDS011;16362;47.202;15.258;2024-02-21T12:50:24;5.72;;;1.55;;
29378;SDS011;16362;47.202;15.258;2024-02-21T12:52:53;5.15;;;1.45;;
29378;SDS011;16362;47.202;15.258;2024-02-21T12:55:21;9.50;;;1.63;;
29378;SDS011;16362;47.202;15.258;2024-02-21T12:57:48;2.83;;;1.58;;
29378;SDS011;16362;47.202;15.258;2024-02-21T13:00:17;2.42;;;1.40;;
29378;SDS011;16362;47.202;15.258;2024-02-21T13:02:57;2.10;;;1.15;;
29378;SDS011;16362;47.202;15.258;2024-02-21T13:05:24;1.50;;;1.30;;
29378;SDS011;16362;47.202;15.258;2024-02-21T13:07:51;3.35;;;1.30;;
29378;SDS011;16362;47.202;15.258;2024-02-21T13:10:18;1.70;;;1.23;;
29378;SDS011;16362;47.202;15.258;2024-02-21T13:12:45;1.02;;;1.00;;
29378;SDS011;16362;47.202;15.258;2024-02-21T13:15:12;1.95;;;1.20;;
29378;SDS011;16362;47.202;15.258;2024-02-21T13:17:39;4.35;;;1.60;;
29378;SDS011;16362;47.202;15.258;2024-02-21T13:20:06;5.78;;;1.50;;
29378;SDS011;16362;47.202;15.258;2024-02-21T13:22:35;2.40;;;1.17;;
29378;SDS011;16362;47.202;15.258;2024-02-21T13:25:01;1.48;;;1.38;;
29378;SDS011;16362;47.202;15.258;2024-02-21T13:27:28;1.30;;;1.10;;
29378;SDS011;16362;47.202;15.258;2024-02-21T13:29:55;2.83;;;1.40;;
29378;SDS011;16362;47.202;15.258;2024-02-21T13:32:22;2.17;;;1.23;;
29378;SDS011;16362;47.202;15.258;2024-02-21T13:34:50;2.90;;;1.20;;
29378;SDS011;16362;47.202;15.258;2024-02-21T13:37:19;1.25;;;0.93;;
29378;SDS011;16362;47.202;15.258;2024-02-21T13:39:45;3.33;;;1.30;;
29378;SDS011;16362;47.202;15.258;2024-02-21T13:42:13;4.20;;;1.48;;
29378;SDS011;16362;47.202;15.258;2024-02-21T13:44:41;1.85;;;1.30;;
29378;SDS011;16362;47.202;15.258;2024-02-21T13:47:08;1.10;;;1.00;;
29378;SDS011;16362;47.202;15.258;2024-02-21T13:49:37;1.20;;;1.10;;
29378;SDS011;16362;47.202;15.258;2024-02-21T13:52:09;1.30;;;1.20;;
29378;SDS011;16362;47.202;15.258;2024-02-21T13:54:38;1.38;;;1.27;;
29378;SDS011;16362;47.202;15.258;2024-02-21T13:57:04;1.75;;;1.25;;
29378;SDS011;16362;47.202;15.258;2024-02-21T13:59:32;8.23;;;1.30;;
29378;SDS011;16362;47.202;15.258;2024-02-21T14:02:00;5.38;;;1.02;;
29378;SDS011;16362;47.202;15.258;2024-02-21T14:04:26;3.42;;;1.15;;
29378;SDS011;16362;47.202;15.258;2024-02-21T14:06:55;6.40;;;1.25;;
29378;SDS011;16362;47.202;15.258;2024-02-21T14:09:24;1.13;;;1.00;;
29378;SDS011;16362;47.202;15.258;2024-02-21T14:12:07;2.15;;;1.05;;
29378;SDS011;16362;47.202;15.258;2024-02-21T14:14:35;1.50;;;1.40;;
29378;SDS011;16362;47.202;15.258;2024-02-21T14:17:05;3.70;;;1.20;;
29378;SDS011;16362;47.202;15.258;2024-02-21T14:19:34;4.70;;;1.10;;
29378;SDS011;16362;47.202;15.258;2024-02-21T14:22:01;3.40;;;1.35;;
29378;SDS011;16362;47.202;15.258;2024-02-21T14:24:28;1.52;;;1.42;;
29378;SDS011;16362;47.202;15.258;2024-02-21T14:26:55;4.00;;;1.58;;
29378;SDS011;16362;47.202;15.258;2024-02-21T14:29:23;1.48;;;1.33;;
29378;SDS011;16362;47.202;15.258;2024-02-21T14:32:03;4.05;;;1.20;;
29378;SDS011;16362;47.202;15.258;2024-02-21T14:34:36;2.05;;;1.20;;
29378;SDS011;16362;47.202;15.258;2024-02-21T14:37:03;1.63;;;1.17;;
29378;SDS011;16362;47.202;15.258;2024-02-21T14:39:31;1.20;;;1.10;;
29378;SDS011;16362;47.202;15.258;2024-02-21T14:42:01;4.07;;;1.27;;
29378;SDS011;16362;47.202;15.258;2024-02-21T14:44:27;1.23;;;1.20;;
29378;SDS011;16362;47.202;15.258;2024-02-21T14:46:54;1.17;;;1.08;;
29378;SDS011;16362;47.202;15.258;2024-02-21T14:49:21;1.67;;;1.55;;
29378;SDS011;16362;47.202;15.258;2024-02-21T14:51:48;3.55;;;1.00;;
29378;SDS011;16362;47.202;15.258;2024-02-21T14:54:15;1.98;;;1.10;;
29378;SDS011;16362;47.202;15.258;2024-02-21T14:56:42;6.40;;;1.27;;